sensor_id;sensor_type;location;lat;lon;timestamp;pressure;altitude;pressure_sealevel;temperature;humidity
62976;BME280;49071;0.000;0.000;2022-12-05T06:42:36;101160.75;;;16.22;37.87
62976;BME280;49071;0.000;0.000;2022-12-05T06:45:37;101163.59;;;16.42;37.72
62976;BME280;49071;0.000;0.000;2022-12-05T06:48:38;101161.81;;;16.69;37.23
62976;BME280;49071;0.000;0.000;2022-12-05T06:51:38;101163.16;;;16.83;37.91
62976;BME280;49071;0.000;0.000;2022-12-05T06:54:38;101159.19;;;16.96;37.72
62976;BME280;49071;0.000;0.000;2022-12-05T06:57:39;101162.72;;;17.20;36.82
62976;BME280;49071;0.000;0.000;2022-12-05T07:00:39;101159.56;;;17.35;36.84
62976;BME280;49071;0.000;0.000;2022-12-05T07:03:58;101170.41;;;17.48;36.78
62976;BME280;49071;0.000;0.000;2022-12-05T07:06:58;101171.13;;;17.53;36.98
62976;BME280;49071;0.000;0.000;2022-12-05T07:10:01;101167.88;;;17.70;37.31
62976;BME280;49071;0.000;0.000;2022-12-05T07:13:01;101177.81;;;17.85;37.37
62976;BME280;49071;0.000;0.000;2022-12-05T07:16:01;101176.41;;;17.99;37.00
62976;BME280;49071;0.000;0.000;2022-12-05T07:19:02;101177.03;;;18.05;36.85
62976;BME280;49071;0.000;0.000;2022-12-05T07:22:02;101175.28;;;18.06;36.66
62976;BME280;49071;0.000;0.000;2022-12-05T07:25:03;101184.13;;;18.03;36.85
62976;BME280;49071;0.000;0.000;2022-12-05T07:28:03;101180.06;;;17.94;36.77
62976;BME280;49071;0.000;0.000;2022-12-05T07:31:07;101171.34;;;17.94;36.66
62976;BME280;49071;0.000;0.000;2022-12-05T07:34:08;101174.78;;;17.96;36.76
62976;BME280;49071;0.000;0.000;2022-12-05T07:37:08;101183.00;;;18.09;36.71
62976;BME280;49071;0.000;0.000;2022-12-05T07:40:09;101186.09;;;18.20;36.50
62976;BME280;49071;0.000;0.000;2022-12-05T07:43:10;101184.72;;;18.32;36.54
62976;BME280;49071;0.000;0.000;2022-12-05T07:46:10;101195.06;;;18.36;36.07
62976;BME280;49071;0.000;0.000;2022-12-05T07:49:10;101201.22;;;18.35;36.30
62976;BME280;49071;0.000;0.000;2022-12-05T07:52:10;101185.72;;;18.29;36.44
62976;BME280;49071;0.000;0.000;2022-12-05T07:55:11;101187.75;;;18.23;36.40
62976;BME280;49071;0.000;0.000;2022-12-05T07:58:11;101186.00;;;18.22;36.49
62976;BME280;49071;0.000;0.000;2022-12-05T08:01:12;101187.78;;;18.21;36.56
62976;BME280;49071;0.000;0.000;2022-12-05T08:04:14;101188.41;;;18.28;36.38
62976;BME280;49071;0.000;0.000;2022-12-05T08:07:14;101201.50;;;18.29;36.36
62976;BME280;49071;0.000;0.000;2022-12-05T08:10:14;101192.38;;;18.38;36.32
62976;BME280;49071;0.000;0.000;2022-12-05T08:13:14;101196.41;;;18.47;36.32
62976;BME280;49071;0.000;0.000;2022-12-05T08:16:16;101193.47;;;18.54;35.93
62976;BME280;49071;0.000;0.000;2022-12-05T08:19:16;101196.72;;;18.59;35.96
62976;BME280;49071;0.000;0.000;2022-12-05T08:22:16;101195.84;;;18.60;36.07
62976;BME280;49071;0.000;0.000;2022-12-05T08:25:17;101194.06;;;18.61;35.90
62976;BME280;49071;0.000;0.000;2022-12-05T08:28:17;101201.81;;;18.64;35.89
62976;BME280;49071;0.000;0.000;2022-12-05T08:31:18;101204.19;;;18.70;35.83
62976;BME280;49071;0.000;0.000;2022-12-05T08:34:18;101203.09;;;18.76;35.65
62976;BME280;49071;0.000;0.000;2022-12-05T08:37:19;101198.44;;;18.82;35.77
62976;BME280;49071;0.000;0.000;2022-12-05T08:40:19;101203.69;;;18.82;35.83
62976;BME280;49071;0.000;0.000;2022-12-05T08:43:19;101207.38;;;18.78;35.63
62976;BME280;49071;0.000;0.000;2022-12-05T08:46:20;101192.72;;;18.73;35.67
62976;BME280;49071;0.000;0.000;2022-12-05T08:49:20;101191.06;;;18.70;36.08
62976;BME280;49071;0.000;0.000;2022-12-05T08:52:20;101185.72;;;18.73;35.86
62976;BME280;49071;0.000;0.000;2022-12-05T08:55:21;101185.44;;;18.79;35.58
62976;BME280;49071;0.000;0.000;2022-12-05T08:58:22;101189.66;;;18.83;35.75
62976;BME280;49071;0.000;0.000;2022-12-05T09:01:22;101192.34;;;18.82;35.60
62976;BME280;49071;0.000;0.000;2022-12-05T09:04:25;101193.31;;;18.79;35.83
62976;BME280;49071;0.000;0.000;2022-12-05T09:07:25;101190.97;;;18.73;35.92
62976;BME280;49071;0.000;0.000;2022-12-05T09:10:25;101195.59;;;18.67;35.94
62976;BME280;49071;0.000;0.000;2022-12-05T09:13:25;101198.50;;;18.59;36.04
62976;BME280;49071;0.000;0.000;2022-12-05T09:16:27;101193.66;;;18.50;35.98
62976;BME280;49071;0.000;0.000;2022-12-05T09:19:28;101196.28;;;18.50;36.04
62976;BME280;49071;0.000;0.000;2022-12-05T09:22:29;101188.28;;;18.53;36.25
62976;BME280;49071;0.000;0.000;2022-12-05T09:25:29;101183.56;;;18.61;36.15
62976;BME280;49071;0.000;0.000;2022-12-05T09:28:30;101191.06;;;18.70;35.78
62976;BME280;49071;0.000;0.000;2022-12-05T09:31:30;101194.25;;;18.78;35.76
62976;BME280;49071;0.000;0.000;2022-12-05T09:34:31;101193.88;;;18.87;35.51
62976;BME280;49071;0.000;0.000;2022-12-05T09:37:31;101197.00;;;18.96;35.77
62976;BME280;49071;0.000;0.000;2022-12-05T09:40:31;101191.28;;;19.06;35.17
62976;BME280;49071;0.000;0.000;2022-12-05T09:43:36;101200.69;;;19.12;35.52
62976;BME280;49071;0.000;0.000;2022-12-05T09:46:51;101191.88;;;19.13;35.22
62976;BME280;49071;0.000;0.000;2022-12-05T09:59:14;101189.19;;;19.15;35.30
62976;BME280;49071;0.000;0.000;2022-12-05T10:02:27;101193.59;;;19.14;35.12
62976;BME280;49071;0.000;0.000;2022-12-05T10:05:42;101179.03;;;19.07;35.48
62976;BME280;49071;0.000;0.000;2022-12-05T10:15:00;101178.28;;;18.83;35.65
62976;BME280;49071;0.000;0.000;2022-12-05T10:21:19;101176.47;;;18.63;36.14
62976;BME280;49071;0.000;0.000;2022-12-05T10:24:42;101161.09;;;18.54;35.78
62976;BME280;49071;0.000;0.000;2022-12-05T10:27:48;101165.00;;;18.44;36.16
62976;BME280;49071;0.000;0.000;2022-12-05T10:30:58;101168.94;;;18.33;36.04
62976;BME280;49071;0.000;0.000;2022-12-05T10:34:14;101164.16;;;18.21;36.38
62976;BME280;49071;0.000;0.000;2022-12-05T10:40:18;101159.66;;;18.03;36.88
62976;BME280;49071;0.000;0.000;2022-12-05T10:43:25;101149.50;;;17.93;36.94
62976;BME280;49071;0.000;0.000;2022-12-05T10:46:26;101163.72;;;17.88;36.83
62976;BME280;49071;0.000;0.000;2022-12-05T10:49:26;101157.81;;;17.83;36.73
62976;BME280;49071;0.000;0.000;2022-12-05T10:52:27;101155.22;;;17.81;36.85
62976;BME280;49071;0.000;0.000;2022-12-05T10:55:30;101148.28;;;17.80;36.92
62976;BME280;49071;0.000;0.000;2022-12-05T10:58:33;101150.78;;;17.83;36.77
62976;BME280;49071;0.000;0.000;2022-12-05T11:01:33;101150.69;;;17.85;36.78
62976;BME280;49071;0.000;0.000;2022-12-05T11:04:41;101152.13;;;17.93;36.73
62976;BME280;49071;0.000;0.000;2022-12-05T11:10:43;101141.78;;;18.12;36.61
62976;BME280;49071;0.000;0.000;2022-12-05T11:13:54;101146.63;;;18.22;36.23
62976;BME280;49071;0.000;0.000;2022-12-05T11:16:56;101152.03;;;18.39;35.77
62976;BME280;49071;0.000;0.000;2022-12-05T11:19:57;101153.13;;;18.55;35.84
62976;BME280;49071;0.000;0.000;2022-12-05T11:22:58;101152.44;;;18.72;35.44
62976;BME280;49071;0.000;0.000;2022-12-05T11:26:33;101150.03;;;18.88;35.24
62976;BME280;49071;0.000;0.000;2022-12-05T11:29:38;101152.19;;;18.99;35.35
62976;BME280;49071;0.000;0.000;2022-12-05T11:32:38;101149.09;;;19.09;34.89
62976;BME280;49071;0.000;0.000;2022-12-05T11:35:38;101156.22;;;19.07;35.13
62976;BME280;49071;0.000;0.000;2022-12-05T11:38:39;101156.34;;;19.04;34.94
62976;BME280;49071;0.000;0.000;2022-12-05T11:51:24;101140.53;;;19.25;34.71
62976;BME280;49071;0.000;0.000;2022-12-05T12:03:51;101130.78;;;19.27;34.86
62976;BME280;49071;0.000;0.000;2022-12-05T12:13:38;101132.22;;;19.53;34.64
62976;BME280;49071;0.000;0.000;2022-12-05T12:17:00;101131.81;;;19.62;34.50
62976;BME280;49071;0.000;0.000;2022-12-05T12:23:31;101128.13;;;19.66;34.43
62976;BME280;49071;0.000;0.000;2022-12-05T12:29:56;101114.56;;;19.75;34.25
62976;BME280;49071;0.000;0.000;2022-12-05T12:33:13;101111.63;;;19.81;34.25
62976;BME280;49071;0.000;0.000;2022-12-05T12:36:26;101105.28;;;19.86;34.08
62976;BME280;49071;0.000;0.000;2022-12-05T12:39:32;101107.06;;;19.85;34.25
62976;BME280;49071;0.000;0.000;2022-12-05T12:51:51;101100.41;;;19.78;34.33
62976;BME280;49071;0.000;0.000;2022-12-05T12:55:02;101097.41;;;19.86;33.94
62976;BME280;49071;0.000;0.000;2022-12-05T12:58:10;101102.44;;;19.90;33.93
62976;BME280;49071;0.000;0.000;2022-12-05T13:04:21;101109.63;;;19.87;33.81
62976;BME280;49071;0.000;0.000;2022-12-05T13:07:27;101102.09;;;19.79;34.22
62976;BME280;49071;0.000;0.000;2022-12-05T13:10:30;101098.63;;;19.78;33.99
62976;BME280;49071;0.000;0.000;2022-12-05T13:13:34;101096.59;;;19.84;34.46
62976;BME280;49071;0.000;0.000;2022-12-05T13:16:36;101098.91;;;19.91;33.96
62976;BME280;49071;0.000;0.000;2022-12-05T13:19:41;101104.78;;;19.96;33.85
62976;BME280;49071;0.000;0.000;2022-12-05T13:22:42;101104.91;;;19.93;33.95
62976;BME280;49071;0.000;0.000;2022-12-05T13:25:43;101100.78;;;19.88;34.29
62976;BME280;49071;0.000;0.000;2022-12-05T13:31:45;101099.91;;;19.70;34.38
62976;BME280;49071;0.000;0.000;2022-12-05T13:34:47;101089.06;;;19.57;34.81
62976;BME280;49071;0.000;0.000;2022-12-05T13:37:48;101100.03;;;19.48;34.79
62976;BME280;49071;0.000;0.000;2022-12-05T13:41:06;101098.75;;;19.38;34.81
62976;BME280;49071;0.000;0.000;2022-12-05T13:44:28;101101.78;;;19.28;34.85
62976;BME280;49071;0.000;0.000;2022-12-05T13:47:34;101094.41;;;19.18;34.90
62976;BME280;49071;0.000;0.000;2022-12-05T13:54:31;101092.56;;;18.99;35.16
62976;BME280;49071;0.000;0.000;2022-12-05T13:57:08;101094.63;;;18.93;35.46
62976;BME280;49071;0.000;0.000;2022-12-05T14:00:27;101100.09;;;18.88;35.34
62976;BME280;49071;0.000;0.000;2022-12-05T14:09:47;101101.91;;;18.86;35.49
62976;BME280;49071;0.000;0.000;2022-12-05T14:12:54;101097.47;;;18.88;35.43
62976;BME280;49071;0.000;0.000;2022-12-05T14:16:36;101097.25;;;18.93;35.21
62976;BME280;49071;0.000;0.000;2022-12-05T14:23:32;101089.63;;;19.07;34.91
62976;BME280;49071;0.000;0.000;2022-12-05T14:29:56;101110.47;;;19.30;35.02
62976;BME280;49071;0.000;0.000;2022-12-05T14:32:59;101102.84;;;19.43;34.75
62976;BME280;49071;0.000;0.000;2022-12-05T14:36:04;101097.31;;;19.49;34.57
62976;BME280;49071;0.000;0.000;2022-12-05T14:39:21;101101.44;;;19.55;34.72
62976;BME280;49071;0.000;0.000;2022-12-05T14:45:33;101110.00;;;19.79;34.83
62976;BME280;49071;0.000;0.000;2022-12-05T14:48:35;101103.19;;;19.75;34.75
62976;BME280;49071;0.000;0.000;2022-12-05T14:54:41;101094.63;;;19.70;35.12
62976;BME280;49071;0.000;0.000;2022-12-05T14:57:47;101096.69;;;19.63;35.18
62976;BME280;49071;0.000;0.000;2022-12-05T15:00:58;101098.44;;;19.63;35.17
62976;BME280;49071;0.000;0.000;2022-12-05T15:07:12;101095.69;;;19.47;35.35
62976;BME280;49071;0.000;0.000;2022-12-05T15:10:18;101096.13;;;19.38;35.62
62976;BME280;49071;0.000;0.000;2022-12-05T15:13:21;101091.50;;;19.24;35.88
62976;BME280;49071;0.000;0.000;2022-12-05T15:16:24;101093.38;;;19.20;36.26
62976;BME280;49071;0.000;0.000;2022-12-05T15:19:41;101095.16;;;19.20;36.23
62976;BME280;49071;0.000;0.000;2022-12-05T15:22:42;101099.38;;;19.24;36.19
62976;BME280;49071;0.000;0.000;2022-12-05T15:25:42;101100.09;;;19.27;36.28
62976;BME280;49071;0.000;0.000;2022-12-05T15:29:03;101102.50;;;19.32;36.19
62976;BME280;49071;0.000;0.000;2022-12-05T15:35:11;101102.53;;;19.51;36.19
62976;BME280;49071;0.000;0.000;2022-12-05T15:38:17;101105.56;;;19.61;36.16
62976;BME280;49071;0.000;0.000;2022-12-05T15:41:20;101118.66;;;19.62;36.17
62976;BME280;49071;0.000;0.000;2022-12-05T15:44:21;101117.47;;;19.69;36.21
62976;BME280;49071;0.000;0.000;2022-12-05T15:47:22;101113.63;;;19.76;36.22
62976;BME280;49071;0.000;0.000;2022-12-05T15:50:34;101111.19;;;19.91;35.99
62976;BME280;49071;0.000;0.000;2022-12-05T15:53:39;101112.28;;;20.04;35.49
62976;BME280;49071;0.000;0.000;2022-12-05T15:56:56;101111.47;;;20.21;35.14
62976;BME280;49071;0.000;0.000;2022-12-05T16:00:05;101108.63;;;20.25;35.44
62976;BME280;49071;0.000;0.000;2022-12-05T16:03:19;101108.94;;;20.19;35.40
62976;BME280;49071;0.000;0.000;2022-12-05T16:06:32;101107.53;;;20.12;35.84
62976;BME280;49071;0.000;0.000;2022-12-05T16:09:37;101107.59;;;20.11;35.69
62976;BME280;49071;0.000;0.000;2022-12-05T16:12:39;101101.63;;;20.07;35.75
62976;BME280;49071;0.000;0.000;2022-12-05T16:15:44;101101.22;;;19.97;35.91
62976;BME280;49071;0.000;0.000;2022-12-05T16:18:51;101105.28;;;19.86;36.00
62976;BME280;49071;0.000;0.000;2022-12-05T16:25:14;101104.22;;;19.52;36.06
62976;BME280;49071;0.000;0.000;2022-12-05T16:28:16;101104.50;;;19.46;36.19
62976;BME280;49071;0.000;0.000;2022-12-05T16:31:17;101099.19;;;19.47;36.30
62976;BME280;49071;0.000;0.000;2022-12-05T16:34:17;101100.88;;;19.48;36.24
62976;BME280;49071;0.000;0.000;2022-12-05T16:37:21;101104.09;;;19.55;36.03
62976;BME280;49071;0.000;0.000;2022-12-05T16:40:22;101102.66;;;19.67;36.03
62976;BME280;49071;0.000;0.000;2022-12-05T16:43:23;101100.59;;;19.73;35.79
62976;BME280;49071;0.000;0.000;2022-12-05T16:52:29;101093.06;;;19.85;35.95
62976;BME280;49071;0.000;0.000;2022-12-05T16:55:29;101089.66;;;19.83;35.69
62976;BME280;49071;0.000;0.000;2022-12-05T16:58:34;101090.50;;;19.83;36.00
62976;BME280;49071;0.000;0.000;2022-12-05T17:01:35;101078.41;;;19.79;36.08
62976;BME280;49071;0.000;0.000;2022-12-05T17:04:35;101078.66;;;19.74;35.97
62976;BME280;49071;0.000;0.000;2022-12-05T17:07:35;101073.81;;;19.65;36.40
62976;BME280;49071;0.000;0.000;2022-12-05T17:10:35;101070.63;;;19.57;36.21
62976;BME280;49071;0.000;0.000;2022-12-05T17:13:36;101064.09;;;19.47;36.44
62976;BME280;49071;0.000;0.000;2022-12-05T17:16:36;101075.09;;;19.38;36.55
62976;BME280;49071;0.000;0.000;2022-12-05T17:19:37;101066.66;;;19.29;36.45
62976;BME280;49071;0.000;0.000;2022-12-05T17:22:40;101068.81;;;19.21;36.75
62976;BME280;49071;0.000;0.000;2022-12-05T17:25:47;101078.75;;;19.15;36.87
62976;BME280;49071;0.000;0.000;2022-12-05T17:28:48;101083.31;;;19.11;37.01
62976;BME280;49071;0.000;0.000;2022-12-05T17:31:48;101084.88;;;19.15;37.09
62976;BME280;49071;0.000;0.000;2022-12-05T17:34:49;101081.31;;;19.16;36.75
62976;BME280;49071;0.000;0.000;2022-12-05T17:37:49;101077.56;;;19.22;36.96
62976;BME280;49071;0.000;0.000;2022-12-05T17:40:49;101078.19;;;19.27;37.14
62976;BME280;49071;0.000;0.000;2022-12-05T17:43:50;101083.16;;;19.33;36.95
62976;BME280;49071;0.000;0.000;2022-12-05T17:46:50;101081.94;;;19.40;37.07
62976;BME280;49071;0.000;0.000;2022-12-05T17:49:50;101086.16;;;19.44;36.77
62976;BME280;49071;0.000;0.000;2022-12-05T17:52:53;101086.38;;;19.58;36.65
62976;BME280;49071;0.000;0.000;2022-12-05T17:55:54;101083.66;;;19.60;36.47
62976;BME280;49071;0.000;0.000;2022-12-05T17:58:54;101083.34;;;19.68;36.68
62976;BME280;49071;0.000;0.000;2022-12-05T18:01:54;101080.25;;;19.77;36.63
62976;BME280;49071;0.000;0.000;2022-12-05T18:04:54;101077.09;;;19.88;36.09
62976;BME280;49071;0.000;0.000;2022-12-05T18:07:54;101080.28;;;19.94;36.23
62976;BME280;49071;0.000;0.000;2022-12-05T18:10:55;101085.56;;;19.94;36.22
62976;BME280;49071;0.000;0.000;2022-12-05T18:13:56;101087.28;;;19.95;36.03
62976;BME280;49071;0.000;0.000;2022-12-05T18:16:57;101098.81;;;19.93;36.08
62976;BME280;49071;0.000;0.000;2022-12-05T18:19:57;101089.50;;;19.86;36.46
62976;BME280;49071;0.000;0.000;2022-12-05T18:22:57;101094.25;;;19.77;36.48
62976;BME280;49071;0.000;0.000;2022-12-05T18:25:58;101089.31;;;19.71;36.54
62976;BME280;49071;0.000;0.000;2022-12-05T18:28:58;101094.91;;;19.64;36.82
62976;BME280;49071;0.000;0.000;2022-12-05T18:31:59;101088.06;;;19.59;36.92
62976;BME280;49071;0.000;0.000;2022-12-05T18:34:59;101090.94;;;19.55;36.76
62976;BME280;49071;0.000;0.000;2022-12-05T18:38:00;101090.41;;;19.47;36.83
62976;BME280;49071;0.000;0.000;2022-12-05T18:41:01;101087.16;;;19.42;36.97
62976;BME280;49071;0.000;0.000;2022-12-05T18:44:01;101082.25;;;19.34;37.08
62976;BME280;49071;0.000;0.000;2022-12-05T18:47:02;101083.44;;;19.27;37.09
62976;BME280;49071;0.000;0.000;2022-12-05T18:50:02;101073.34;;;19.18;37.50
62976;BME280;49071;0.000;0.000;2022-12-05T18:53:03;101079.13;;;19.07;37.63
62976;BME280;49071;0.000;0.000;2022-12-05T18:56:05;101069.63;;;19.03;37.84
62976;BME280;49071;0.000;0.000;2022-12-05T18:59:06;101072.22;;;19.04;37.68
62976;BME280;49071;0.000;0.000;2022-12-05T19:02:07;101076.63;;;19.04;37.81
62976;BME280;49071;0.000;0.000;2022-12-05T19:05:08;101072.22;;;19.04;37.58
62976;BME280;49071;0.000;0.000;2022-12-05T19:08:08;101078.03;;;19.11;37.67
62976;BME280;49071;0.000;0.000;2022-12-05T19:11:10;101077.78;;;19.17;37.49
62976;BME280;49071;0.000;0.000;2022-12-05T19:14:10;101084.38;;;19.26;37.67
62976;BME280;49071;0.000;0.000;2022-12-05T19:17:10;101085.03;;;19.31;37.63
62976;BME280;49071;0.000;0.000;2022-12-05T19:20:11;101084.72;;;19.37;37.42
62976;BME280;49071;0.000;0.000;2022-12-05T19:23:11;101091.34;;;19.46;37.15
62976;BME280;49071;0.000;0.000;2022-12-05T19:26:11;101102.16;;;19.58;36.99
62976;BME280;49071;0.000;0.000;2022-12-05T19:29:12;101098.97;;;19.71;36.73
62976;BME280;49071;0.000;0.000;2022-12-05T19:32:12;101096.00;;;19.78;36.91
62976;BME280;49071;0.000;0.000;2022-12-05T19:35:13;101092.69;;;19.92;36.90
62976;BME280;49071;0.000;0.000;2022-12-05T19:38:14;101095.59;;;20.05;36.42
62976;BME280;49071;0.000;0.000;2022-12-05T19:41:15;101090.09;;;20.10;36.41
62976;BME280;49071;0.000;0.000;2022-12-05T19:44:15;101097.97;;;20.10;36.13
62976;BME280;49071;0.000;0.000;2022-12-05T19:47:16;101103.16;;;20.11;36.61
62976;BME280;49071;0.000;0.000;2022-12-05T19:50:16;101098.06;;;20.08;36.58
62976;BME280;49071;0.000;0.000;2022-12-05T19:53:17;101095.72;;;20.02;36.51
62976;BME280;49071;0.000;0.000;2022-12-05T19:56:21;101096.19;;;19.93;36.33
62976;BME280;49071;0.000;0.000;2022-12-05T19:59:21;101094.81;;;19.84;36.36
62976;BME280;49071;0.000;0.000;2022-12-05T20:02:21;101101.25;;;19.78;36.70
62976;BME280;49071;0.000;0.000;2022-12-05T20:05:24;101097.13;;;19.73;36.94
62976;BME280;49071;0.000;0.000;2022-12-05T20:08:24;101090.31;;;19.69;36.75
62976;BME280;49071;0.000;0.000;2022-12-05T20:11:25;101090.53;;;19.64;36.99
62976;BME280;49071;0.000;0.000;2022-12-05T20:14:25;101096.25;;;19.53;37.43
62976;BME280;49071;0.000;0.000;2022-12-05T20:17:25;101094.06;;;19.44;37.36
62976;BME280;49071;0.000;0.000;2022-12-05T20:20:26;101094.38;;;19.37;37.50
62976;BME280;49071;0.000;0.000;2022-12-05T20:23:26;101100.00;;;19.29;37.50
62976;BME280;49071;0.000;0.000;2022-12-05T20:26:28;101102.00;;;19.24;37.44
62976;BME280;49071;0.000;0.000;2022-12-05T20:29:29;101102.28;;;19.18;37.69
62976;BME280;49071;0.000;0.000;2022-12-05T20:32:29;101105.19;;;19.11;38.04
62976;BME280;49071;0.000;0.000;2022-12-05T20:35:29;101097.50;;;19.07;38.23
62976;BME280;49071;0.000;0.000;2022-12-05T20:38:29;101094.00;;;19.06;38.41
62976;BME280;49071;0.000;0.000;2022-12-05T20:41:30;101099.97;;;19.10;38.02
62976;BME280;49071;0.000;0.000;2022-12-05T20:44:30;101098.94;;;19.14;38.16
62976;BME280;49071;0.000;0.000;2022-12-05T20:47:30;101092.88;;;19.12;37.90
